sensor_id;sensor_type;location;lat;lon;timestamp;pressure;altitude;pressure_sealevel;temperature;humidity
68193;BME280;55012;47.562;18.414;2023-02-15T00:01:29;101427.38;;;-1.31;100.00
68193;BME280;55012;47.562;18.414;2023-02-15T00:03:54;101429.22;;;-1.31;100.00
68193;BME280;55012;47.562;18.414;2023-02-15T00:06:20;101433.31;;;-1.35;100.00
68193;BME280;55012;47.562;18.414;2023-02-15T00:08:45;101432.53;;;-1.43;100.00
68193;BME280;55012;47.562;18.414;2023-02-15T00:11:13;101430.91;;;-1.44;100.00
68193;BME280;55012;47.562;18.414;2023-02-15T00:13:39;101420.72;;;-1.47;100.00
68193;BME280;55012;47.562;18.414;2023-02-15T00:16:12;101420.50;;;-1.45;100.00
68193;BME280;55012;47.562;18.414;2023-02-15T00:18:39;101416.22;;;-1.46;100.00
68193;BME280;55012;47.562;18.414;2023-02-15T00:21:07;101425.81;;;-1.45;100.00
68193;BME280;55012;47.562;18.414;2023-02-15T00:23:33;101419.69;;;-1.46;100.00
68193;BME280;55012;47.562;18.414;2023-02-15T00:26:11;101418.47;;;-1.50;100.00
68193;BME280;55012;47.562;18.414;2023-02-15T00:28:38;101416.25;;;-1.53;100.00
68193;BME280;55012;47.562;18.414;2023-02-15T00:31:10;101416.28;;;-1.59;100.00
68193;BME280;55012;47.562;18.414;2023-02-15T00:33:37;101424.25;;;-1.59;100.00
68193;BME280;55012;47.562;18.414;2023-02-15T00:36:05;101417.53;;;-1.62;100.00
68193;BME280;55012;47.562;18.414;2023-02-15T00:38:31;101424.03;;;-1.58;100.00
68193;BME280;55012;47.562;18.414;2023-02-15T00:40:58;101424.03;;;-1.58;100.00
68193;BME280;55012;47.562;18.414;2023-02-15T00:43:25;101428.13;;;-1.62;100.00
68193;BME280;55012;47.562;18.414;2023-02-15T00:45:51;101415.69;;;-1.68;100.00
68193;BME280;55012;47.562;18.414;2023-02-15T00:48:18;101414.28;;;-1.71;100.00
68193;BME280;55012;47.562;18.414;2023-02-15T00:50:49;101413.25;;;-1.70;100.00
68193;BME280;55012;47.562;18.414;2023-02-15T00:53:15;101412.88;;;-1.73;100.00
68193;BME280;55012;47.562;18.414;2023-02-15T00:55:41;101409.66;;;-1.82;100.00
68193;BME280;55012;47.562;18.414;2023-02-15T00:58:08;101411.69;;;-1.90;100.00
68193;BME280;55012;47.562;18.414;2023-02-15T01:00:35;101405.63;;;-1.98;100.00
68193;BME280;55012;47.562;18.414;2023-02-15T01:03:00;101405.78;;;-1.99;100.00
68193;BME280;55012;47.562;18.414;2023-02-15T01:05:26;101401.72;;;-2.02;100.00
68193;BME280;55012;47.562;18.414;2023-02-15T01:07:52;101403.38;;;-2.01;100.00
68193;BME280;55012;47.562;18.414;2023-02-15T01:10:17;101396.44;;;-2.02;100.00
68193;BME280;55012;47.562;18.414;2023-02-15T01:12:43;101403.56;;;-2.02;100.00
68193;BME280;55012;47.562;18.414;2023-02-15T01:15:08;101396.25;;;-2.07;100.00
68193;BME280;55012;47.562;18.414;2023-02-15T01:17:34;101393.19;;;-2.10;100.00
68193;BME280;55012;47.562;18.414;2023-02-15T01:20:00;101393.78;;;-2.08;100.00
68193;BME280;55012;47.562;18.414;2023-02-15T01:22:25;101391.78;;;-2.06;100.00
68193;BME280;55012;47.562;18.414;2023-02-15T01:24:51;101396.03;;;-2.05;100.00
68193;BME280;55012;47.562;18.414;2023-02-15T01:27:17;101391.78;;;-2.06;100.00
68193;BME280;55012;47.562;18.414;2023-02-15T01:29:43;101383.59;;;-2.05;100.00
68193;BME280;55012;47.562;18.414;2023-02-15T01:32:09;101381.34;;;-2.08;100.00
68193;BME280;55012;47.562;18.414;2023-02-15T01:34:34;101384.22;;;-2.09;100.00
68193;BME280;55012;47.562;18.414;2023-02-15T01:37:00;101385.44;;;-2.12;100.00
68193;BME280;55012;47.562;18.414;2023-02-15T01:39:26;101379.72;;;-2.15;100.00
68193;BME280;55012;47.562;18.414;2023-02-15T01:41:51;101370.78;;;-2.14;100.00
68193;BME280;55012;47.562;18.414;2023-02-15T01:44:47;101382.00;;;-2.12;100.00
68193;BME280;55012;47.562;18.414;2023-02-15T01:47:18;101369.13;;;-2.15;100.00
68193;BME280;55012;47.562;18.414;2023-02-15T01:49:46;101369.13;;;-2.15;100.00
68193;BME280;55012;47.562;18.414;2023-02-15T01:52:16;101376.28;;;-2.16;100.00
68193;BME280;55012;47.562;18.414;2023-02-15T01:54:44;101371.59;;;-2.14;100.00
68193;BME280;55012;47.562;18.414;2023-02-15T01:57:13;101370.34;;;-2.11;100.00
68193;BME280;55012;47.562;18.414;2023-02-15T01:59:43;101375.06;;;-2.13;100.00
68193;BME280;55012;47.562;18.414;2023-02-15T02:02:11;101374.03;;;-2.19;100.00
68193;BME280;55012;47.562;18.414;2023-02-15T02:04:48;101366.91;;;-2.25;100.00
68193;BME280;55012;47.562;18.414;2023-02-15T02:07:17;101362.03;;;-2.28;100.00
68193;BME280;55012;47.562;18.414;2023-02-15T02:09:44;101364.91;;;-2.30;100.00
68193;BME280;55012;47.562;18.414;2023-02-15T02:12:10;101366.09;;;-2.26;100.00
68193;BME280;55012;47.562;18.414;2023-02-15T02:14:38;101356.72;;;-2.21;100.00
68193;BME280;55012;47.562;18.414;2023-02-15T02:20:17;101359.75;;;-2.18;100.00
68193;BME280;55012;47.562;18.414;2023-02-15T02:23:16;101364.06;;;-2.23;100.00
68193;BME280;55012;47.562;18.414;2023-02-15T02:34:30;101361.47;;;-2.57;100.00
68193;BME280;55012;47.562;18.414;2023-02-15T02:40:04;101351.69;;;-2.49;100.00
68193;BME280;55012;47.562;18.414;2023-02-15T02:42:56;101348.00;;;-2.48;100.00
68193;BME280;55012;47.562;18.414;2023-02-15T02:45:28;101335.97;;;-2.44;100.00
68193;BME280;55012;47.562;18.414;2023-02-15T02:48:02;101343.09;;;-2.38;100.00
68193;BME280;55012;47.562;18.414;2023-02-15T02:50:29;101334.34;;;-2.39;100.00
68193;BME280;55012;47.562;18.414;2023-02-15T02:52:56;101339.59;;;-2.32;100.00
68193;BME280;55012;47.562;18.414;2023-02-15T02:57:57;101340.81;;;-2.21;100.00
68193;BME280;55012;47.562;18.414;2023-02-15T03:00:29;101337.31;;;-2.15;100.00
68193;BME280;55012;47.562;18.414;2023-02-15T03:03:01;101345.88;;;-2.07;100.00
68193;BME280;55012;47.562;18.414;2023-02-15T03:05:33;101339.94;;;-2.02;100.00
68193;BME280;55012;47.562;18.414;2023-02-15T03:08:03;101343.38;;;-1.95;100.00
68193;BME280;55012;47.562;18.414;2023-02-15T03:10:32;101342.53;;;-1.89;100.00
68193;BME280;55012;47.562;18.414;2023-02-15T03:13:00;101336.38;;;-1.83;100.00
68193;BME280;55012;47.562;18.414;2023-02-15T03:15:30;101337.59;;;-1.79;100.00
68193;BME280;55012;47.562;18.414;2023-02-15T03:18:18;101345.31;;;-1.71;100.00
68193;BME280;55012;47.562;18.414;2023-02-15T03:20:46;101342.84;;;-1.65;100.00
68193;BME280;55012;47.562;18.414;2023-02-15T03:23:16;101344.84;;;-1.61;100.00
68193;BME280;55012;47.562;18.414;2023-02-15T03:25:46;101340.34;;;-1.60;100.00
68193;BME280;55012;47.562;18.414;2023-02-15T03:28:20;101339.09;;;-1.58;100.00
68193;BME280;55012;47.562;18.414;2023-02-15T03:30:51;101338.91;;;-1.56;100.00
68193;BME280;55012;47.562;18.414;2023-02-15T03:33:19;101342.38;;;-1.56;100.00
68193;BME280;55012;47.562;18.414;2023-02-15T03:35:53;101339.91;;;-1.57;100.00
68193;BME280;55012;47.562;18.414;2023-02-15T03:38:28;101329.72;;;-1.60;100.00
68193;BME280;55012;47.562;18.414;2023-02-15T03:40:56;101339.31;;;-1.59;100.00
68193;BME280;55012;47.562;18.414;2023-02-15T03:46:27;101333.78;;;-1.58;100.00
68193;BME280;55012;47.562;18.414;2023-02-15T03:48:57;101336.44;;;-1.58;100.00
68193;BME280;55012;47.562;18.414;2023-02-15T03:51:28;101334.22;;;-1.61;100.00
68193;BME280;55012;47.562;18.414;2023-02-15T03:54:23;101339.16;;;-1.64;100.00
68193;BME280;55012;47.562;18.414;2023-02-15T03:57:07;101333.06;;;-1.72;100.00
68193;BME280;55012;47.562;18.414;2023-02-15T03:59:53;101335.16;;;-1.80;100.00
68193;BME280;55012;47.562;18.414;2023-02-15T04:05:22;101340.13;;;-1.97;100.00
68193;BME280;55012;47.562;18.414;2023-02-15T04:07:47;101342.19;;;-2.06;100.00
68193;BME280;55012;47.562;18.414;2023-02-15T04:10:13;101340.59;;;-2.13;100.00
68193;BME280;55012;47.562;18.414;2023-02-15T04:12:56;101340.19;;;-2.17;100.00
68193;BME280;55012;47.562;18.414;2023-02-15T04:15:22;101342.66;;;-2.22;100.00
68193;BME280;55012;47.562;18.414;2023-02-15T04:18:06;101343.69;;;-2.23;100.00
68193;BME280;55012;47.562;18.414;2023-02-15T04:20:31;101336.13;;;-2.26;100.00
68193;BME280;55012;47.562;18.414;2023-02-15T04:23:15;101340.22;;;-2.30;100.00
68193;BME280;55012;47.562;18.414;2023-02-15T04:26:03;101332.06;;;-2.35;100.00
68193;BME280;55012;47.562;18.414;2023-02-15T04:28:29;101337.19;;;-2.40;100.00
68193;BME280;55012;47.562;18.414;2023-02-15T04:30:55;101340.03;;;-2.42;100.00
68193;BME280;55012;47.562;18.414;2023-02-15T04:33:20;101341.88;;;-2.42;100.00
68193;BME280;55012;47.562;18.414;2023-02-15T04:35:46;101337.00;;;-2.45;100.00
68193;BME280;55012;47.562;18.414;2023-02-15T04:38:11;101337.81;;;-2.45;100.00
68193;BME280;55012;47.562;18.414;2023-02-15T04:40:37;101340.03;;;-2.42;100.00
68193;BME280;55012;47.562;18.414;2023-02-15T04:43:02;101336.19;;;-2.39;100.00
68193;BME280;55012;47.562;18.414;2023-02-15T04:45:27;101331.28;;;-2.36;100.00
68193;BME280;55012;47.562;18.414;2023-02-15T04:47:53;101346.75;;;-2.33;100.00
68193;BME280;55012;47.562;18.414;2023-02-15T04:50:19;101341.03;;;-2.30;100.00
68193;BME280;55012;47.562;18.414;2023-02-15T04:52:44;101332.28;;;-2.30;100.00
68193;BME280;55012;47.562;18.414;2023-02-15T04:55:10;101336.56;;;-2.29;100.00
68193;BME280;55012;47.562;18.414;2023-02-15T04:57:35;101337.38;;;-2.29;100.00
68193;BME280;55012;47.562;18.414;2023-02-15T05:00:01;101341.66;;;-2.28;100.00
68193;BME280;55012;47.562;18.414;2023-02-15T05:02:26;101342.25;;;-2.26;100.00
68193;BME280;55012;47.562;18.414;2023-02-15T05:04:51;101341.00;;;-2.16;100.00
68193;BME280;55012;47.562;18.414;2023-02-15T05:07:17;101331.59;;;-2.12;100.00
68193;BME280;55012;47.562;18.414;2023-02-15T05:09:45;101343.00;;;-2.05;100.00
68193;BME280;55012;47.562;18.414;2023-02-15T05:12:10;101345.03;;;-2.07;100.00
68193;BME280;55012;47.562;18.414;2023-02-15T05:14:36;101343.03;;;-2.12;100.00
68193;BME280;55012;47.562;18.414;2023-02-15T05:17:01;101352.63;;;-2.17;100.00
68193;BME280;55012;47.562;18.414;2023-02-15T05:19:28;101352.44;;;-2.22;100.00
68193;BME280;55012;47.562;18.414;2023-02-15T05:21:54;101353.88;;;-2.27;100.00
68193;BME280;55012;47.562;18.414;2023-02-15T05:24:19;101361.44;;;-2.30;100.00
68193;BME280;55012;47.562;18.414;2023-02-15T05:27:04;101364.31;;;-2.32;100.00
68193;BME280;55012;47.562;18.414;2023-02-15T05:29:48;101381.41;;;-2.34;100.00
68193;BME280;55012;47.562;18.414;2023-02-15T05:32:13;101367.19;;;-2.40;100.00
68193;BME280;55012;47.562;18.414;2023-02-15T05:34:39;101372.28;;;-2.45;100.00
68193;BME280;55012;47.562;18.414;2023-02-15T05:37:04;101379.41;;;-2.45;100.00
68193;BME280;55012;47.562;18.414;2023-02-15T05:39:30;101384.28;;;-2.49;100.00
68193;BME280;55012;47.562;18.414;2023-02-15T05:41:59;101378.59;;;-2.52;100.00
68193;BME280;55012;47.562;18.414;2023-02-15T05:44:25;101389.63;;;-2.56;100.00
68193;BME280;55012;47.562;18.414;2023-02-15T05:46:50;101382.47;;;-2.55;100.00
68193;BME280;55012;47.562;18.414;2023-02-15T05:49:16;101387.97;;;-2.57;100.00
68193;BME280;55012;47.562;18.414;2023-02-15T05:51:41;101389.41;;;-2.54;100.00
68193;BME280;55012;47.562;18.414;2023-02-15T05:54:07;101395.09;;;-2.50;100.00
68193;BME280;55012;47.562;18.414;2023-02-15T05:56:32;101399.38;;;-2.49;100.00
68193;BME280;55012;47.562;18.414;2023-02-15T05:58:58;101403.84;;;-2.50;100.00
68193;BME280;55012;47.562;18.414;2023-02-15T06:01:23;101400.81;;;-2.53;100.00
68193;BME280;55012;47.562;18.414;2023-02-15T06:03:49;101412.44;;;-2.55;100.00
68193;BME280;55012;47.562;18.414;2023-02-15T06:06:15;101407.13;;;-2.55;100.00
68193;BME280;55012;47.562;18.414;2023-02-15T06:08:40;101406.72;;;-2.51;100.00
68193;BME280;55012;47.562;18.414;2023-02-15T06:11:06;101412.63;;;-2.49;100.00
68193;BME280;55012;47.562;18.414;2023-02-15T06:13:33;101421.59;;;-2.50;100.00
68193;BME280;55012;47.562;18.414;2023-02-15T06:15:58;101420.19;;;-2.53;100.00
68193;BME280;55012;47.562;18.414;2023-02-15T06:18:24;101421.81;;;-2.65;100.00
68193;BME280;55012;47.562;18.414;2023-02-15T06:20:50;101416.69;;;-2.73;100.00
68193;BME280;55012;47.562;18.414;2023-02-15T06:23:15;101417.72;;;-2.74;100.00
68193;BME280;55012;47.562;18.414;2023-02-15T06:25:41;101422.19;;;-2.82;100.00
68193;BME280;55012;47.562;18.414;2023-02-15T06:28:07;101425.25;;;-2.91;100.00
68193;BME280;55012;47.562;18.414;2023-02-15T06:30:32;101425.44;;;-2.99;100.00
68193;BME280;55012;47.562;18.414;2023-02-15T06:32:58;101420.56;;;-3.02;100.00
68193;BME280;55012;47.562;18.414;2023-02-15T06:35:23;101427.06;;;-2.98;100.00
68193;BME280;55012;47.562;18.414;2023-02-15T06:37:50;101420.97;;;-2.92;100.00
68193;BME280;55012;47.562;18.414;2023-02-15T06:40:15;101426.69;;;-2.82;100.00
68193;BME280;55012;47.562;18.414;2023-02-15T06:42:42;101426.47;;;-2.74;100.00
68193;BME280;55012;47.562;18.414;2023-02-15T06:45:08;101422.00;;;-2.60;100.00
68193;BME280;55012;47.562;18.414;2023-02-15T06:47:33;101417.53;;;-2.53;100.00
68193;BME280;55012;47.562;18.414;2023-02-15T06:49:59;101415.47;;;-2.44;100.00
68193;BME280;55012;47.562;18.414;2023-02-15T06:52:24;101426.47;;;-2.34;100.00
68193;BME280;55012;47.562;18.414;2023-02-15T06:54:50;101435.63;;;-2.23;100.00
68193;BME280;55012;47.562;18.414;2023-02-15T06:57:16;101429.13;;;-2.14;100.00
68193;BME280;55012;47.562;18.414;2023-02-15T06:59:41;101438.25;;;-2.04;100.00
68193;BME280;55012;47.562;18.414;2023-02-15T07:02:08;101435.19;;;-1.94;100.00
68193;BME280;55012;47.562;18.414;2023-02-15T07:04:34;101433.53;;;-1.88;100.00
68193;BME280;55012;47.562;18.414;2023-02-15T07:07:00;101443.72;;;-1.79;100.00
68193;BME280;55012;47.562;18.414;2023-02-15T07:09:25;101446.94;;;-1.70;100.00
68193;BME280;55012;47.562;18.414;2023-02-15T07:11:51;101450.78;;;-1.66;100.00
68193;BME280;55012;47.562;18.414;2023-02-15T07:14:35;101446.28;;;-1.59;100.00
68193;BME280;55012;47.562;18.414;2023-02-15T07:17:00;101448.91;;;-1.52;100.00
68193;BME280;55012;47.562;18.414;2023-02-15T07:19:26;101442.56;;;-1.45;100.00
68193;BME280;55012;47.562;18.414;2023-02-15T07:21:51;101452.72;;;-1.35;100.00
68193;BME280;55012;47.562;18.414;2023-02-15T07:24:17;101450.63;;;-1.26;100.00
68193;BME280;55012;47.562;18.414;2023-02-15T07:26:42;101436.13;;;-1.24;100.00
68193;BME280;55012;47.562;18.414;2023-02-15T07:29:08;101447.09;;;-1.14;100.00
68193;BME280;55012;47.562;18.414;2023-02-15T07:31:34;101444.19;;;-1.05;100.00
68193;BME280;55012;47.562;18.414;2023-02-15T07:34:00;101443.13;;;-0.98;100.00
68193;BME280;55012;47.562;18.414;2023-02-15T07:36:25;101447.16;;;-0.89;100.00
68193;BME280;55012;47.562;18.414;2023-02-15T07:38:51;101447.31;;;-0.83;100.00
68193;BME280;55012;47.562;18.414;2023-02-15T07:41:16;101442.16;;;-0.78;100.00
68193;BME280;55012;47.562;18.414;2023-02-15T07:43:44;101454.56;;;-0.66;100.00
68193;BME280;55012;47.562;18.414;2023-02-15T07:46:15;101450.16;;;-0.53;100.00
68193;BME280;55012;47.562;18.414;2023-02-15T07:48:42;101445.78;;;-0.41;100.00
68193;BME280;55012;47.562;18.414;2023-02-15T07:51:10;101448.75;;;-0.31;100.00
68193;BME280;55012;47.562;18.414;2023-02-15T07:53:36;101437.38;;;-0.20;100.00
68193;BME280;55012;47.562;18.414;2023-02-15T07:56:05;101429.13;;;-0.12;100.00
68193;BME280;55012;47.562;18.414;2023-02-15T07:58:31;101439.03;;;-0.01;100.00
68193;BME280;55012;47.562;18.414;2023-02-15T08:01:26;101440.38;;;0.09;100.00
68193;BME280;55012;47.562;18.414;2023-02-15T08:03:55;101441.31;;;0.14;100.00
68193;BME280;55012;47.562;18.414;2023-02-15T08:06:22;101434.78;;;0.17;100.00
68193;BME280;55012;47.562;18.414;2023-02-15T08:08:48;101426.31;;;0.20;100.00
68193;BME280;55012;47.562;18.414;2023-02-15T08:11:25;101428.31;;;0.24;100.00
68193;BME280;55012;47.562;18.414;2023-02-15T08:13:59;101423.38;;;0.28;100.00
68193;BME280;55012;47.562;18.414;2023-02-15T08:16:29;101422.91;;;0.31;100.00
68193;BME280;55012;47.562;18.414;2023-02-15T08:18:56;101423.66;;;0.38;100.00
68193;BME280;55012;47.562;18.414;2023-02-15T08:21:22;101424.63;;;0.44;100.00
68193;BME280;55012;47.562;18.414;2023-02-15T08:23:47;101431.50;;;0.51;100.00
68193;BME280;55012;47.562;18.414;2023-02-15T08:26:13;101438.56;;;0.57;100.00
68193;BME280;55012;47.562;18.414;2023-02-15T08:28:40;101432.56;;;0.62;100.00
68193;BME280;55012;47.562;18.414;2023-02-15T08:31:10;101435.16;;;0.69;100.00
68193;BME280;55012;47.562;18.414;2023-02-15T08:33:38;101438.75;;;0.74;100.00
68193;BME280;55012;47.562;18.414;2023-02-15T08:36:10;101436.22;;;0.79;100.00
68193;BME280;55012;47.562;18.414;2023-02-15T08:38:35;101431.72;;;0.80;100.00
68193;BME280;55012;47.562;18.414;2023-02-15T08:41:21;101425.09;;;0.82;100.00
68193;BME280;55012;47.562;18.414;2023-02-15T08:43:49;101423.88;;;0.85;100.00
68193;BME280;55012;47.562;18.414;2023-02-15T08:46:16;101419.69;;;0.89;100.00
68193;BME280;55012;47.562;18.414;2023-02-15T08:48:43;101421.69;;;0.94;100.00
68193;BME280;55012;47.562;18.414;2023-02-15T08:51:17;101414.41;;;1.01;100.00
68193;BME280;55012;47.562;18.414;2023-02-15T08:53:45;101412.09;;;1.04;100.00
68193;BME280;55012;47.562;18.414;2023-02-15T08:56:11;101415.72;;;1.10;100.00
68193;BME280;55012;47.562;18.414;2023-02-15T08:58:37;101407.81;;;1.15;100.00
68193;BME280;55012;47.562;18.414;2023-02-15T09:01:11;101415.84;;;1.27;100.00
68193;BME280;55012;47.562;18.414;2023-02-15T09:03:36;101413.44;;;1.37;100.00
68193;BME280;55012;47.562;18.414;2023-02-15T09:06:02;101419.72;;;1.43;100.00
68193;BME280;55012;47.562;18.414;2023-02-15T09:08:28;101423.09;;;1.50;100.00
68193;BME280;55012;47.562;18.414;2023-02-15T09:10:54;101422.59;;;1.53;100.00
68193;BME280;55012;47.562;18.414;2023-02-15T09:13:20;101425.16;;;1.59;100.00
68193;BME280;55012;47.562;18.414;2023-02-15T09:15:46;101425.25;;;1.64;100.00
68193;BME280;55012;47.562;18.414;2023-02-15T09:18:13;101427.59;;;1.73;100.00
68193;BME280;55012;47.562;18.414;2023-02-15T09:20:43;101419.22;;;1.81;100.00
68193;BME280;55012;47.562;18.414;2023-02-15T09:23:09;101432.34;;;1.94;100.00
68193;BME280;55012;47.562;18.414;2023-02-15T09:25:35;101423.19;;;2.02;100.00
68193;BME280;55012;47.562;18.414;2023-02-15T09:28:00;101420.97;;;2.10;100.00
68193;BME280;55012;47.562;18.414;2023-02-15T09:30:25;101422.69;;;2.16;100.00
68193;BME280;55012;47.562;18.414;2023-02-15T09:32:51;101418.50;;;2.20;100.00
68193;BME280;55012;47.562;18.414;2023-02-15T09:35:16;101419.19;;;2.28;100.00
68193;BME280;55012;47.562;18.414;2023-02-15T09:37:42;101418.38;;;2.27;100.00
68193;BME280;55012;47.562;18.414;2023-02-15T09:40:08;101419.06;;;2.34;100.00
68193;BME280;55012;47.562;18.414;2023-02-15T09:43:19;101430.41;;;2.41;100.00
68193;BME280;55012;47.562;18.414;2023-02-15T09:45:40;101431.56;;;2.45;100.00
68193;BME280;55012;47.562;18.414;2023-02-15T09:48:30;101433.97;;;2.47;100.00
68193;BME280;55012;47.562;18.414;2023-02-15T09:51:38;101433.78;;;2.48;100.00
68193;BME280;55012;47.562;18.414;2023-02-15T09:56:52;101426.31;;;2.50;100.00
68193;BME280;55012;47.562;18.414;2023-02-15T10:14:37;101389.66;;;2.91;100.00
68193;BME280;55012;47.562;18.414;2023-02-15T10:27:49;101369.91;;;3.26;100.00
68193;BME280;55012;47.562;18.414;2023-02-15T10:30:19;101362.53;;;3.33;100.00
68193;BME280;55012;47.562;18.414;2023-02-15T10:33:04;101347.59;;;3.37;100.00
68193;BME280;55012;47.562;18.414;2023-02-15T10:35:44;101335.13;;;3.43;100.00
68193;BME280;55012;47.562;18.414;2023-02-15T10:38:37;101339.97;;;3.46;100.00
68193;BME280;55012;47.562;18.414;2023-02-15T10:41:32;101322.63;;;3.48;100.00
68193;BME280;55012;47.562;18.414;2023-02-15T10:50:06;101290.13;;;3.61;100.00
68193;BME280;55012;47.562;18.414;2023-02-15T10:52:46;101287.97;;;3.58;100.00
68193;BME280;55012;47.562;18.414;2023-02-15T10:58:31;101264.63;;;3.76;100.00
68193;BME280;55012;47.562;18.414;2023-02-15T11:06:19;101211.56;;;3.94;100.00
68193;BME280;55012;47.562;18.414;2023-02-15T11:08:50;101207.94;;;4.06;100.00
68193;BME280;55012;47.562;18.414;2023-02-15T11:11:42;101195.69;;;4.15;100.00
68193;BME280;55012;47.562;18.414;2023-02-15T11:14:19;101176.97;;;4.20;100.00
68193;BME280;55012;47.562;18.414;2023-02-15T11:16:53;101171.97;;;4.29;100.00
68193;BME280;55012;47.562;18.414;2023-02-15T11:19:26;101159.97;;;4.36;100.00
68193;BME280;55012;47.562;18.414;2023-02-15T11:21:59;101156.78;;;4.39;100.00
68193;BME280;55012;47.562;18.414;2023-02-15T11:24:28;101133.97;;;4.37;100.00
68193;BME280;55012;47.562;18.414;2023-02-15T11:27:00;101131.63;;;4.45;100.00
68193;BME280;55012;47.562;18.414;2023-02-15T11:29:41;101113.44;;;4.47;100.00
68193;BME280;55012;47.562;18.414;2023-02-15T11:32:25;101105.16;;;4.54;100.00
68193;BME280;55012;47.562;18.414;2023-02-15T11:37:19;101092.09;;;4.68;100.00
68193;BME280;55012;47.562;18.414;2023-02-15T11:39:50;101073.38;;;4.78;100.00
68193;BME280;55012;47.562;18.414;2023-02-15T11:42:22;101062.97;;;4.87;100.00
68193;BME280;55012;47.562;18.414;2023-02-15T11:47:37;101029.78;;;4.98;100.00
68193;BME280;55012;47.562;18.414;2023-02-15T11:50:02;101011.28;;;5.01;100.00
68193;BME280;55012;47.562;18.414;2023-02-15T11:52:28;100999.19;;;5.04;100.00
68193;BME280;55012;47.562;18.414;2023-02-15T11:54:54;100967.28;;;4.97;100.00
68193;BME280;55012;47.562;18.414;2023-02-15T11:57:28;100969.97;;;5.07;100.00
68193;BME280;55012;47.562;18.414;2023-02-15T12:00:55;100965.16;;;5.10;100.00
68193;BME280;55012;47.562;18.414;2023-02-15T12:02:57;100948.53;;;5.07;100.00
68193;BME280;55012;47.562;18.414;2023-02-15T12:05:26;100950.16;;;5.14;100.00
68193;BME280;55012;47.562;18.414;2023-02-15T12:08:00;100938.88;;;5.22;100.00
68193;BME280;55012;47.562;18.414;2023-02-15T12:10:33;100948.53;;;5.33;100.00
68193;BME280;55012;47.562;18.414;2023-02-15T12:13:10;100941.03;;;5.45;100.00
68193;BME280;55012;47.562;18.414;2023-02-15T12:15:36;100930.31;;;5.55;100.00
68193;BME280;55012;47.562;18.414;2023-02-15T12:18:02;100913.66;;;5.63;100.00
68193;BME280;55012;47.562;18.414;2023-02-15T12:20:33;100901.00;;;5.74;100.00
68193;BME280;55012;47.562;18.414;2023-02-15T12:23:03;100887.59;;;5.79;100.00
68193;BME280;55012;47.562;18.414;2023-02-15T12:25:54;100859.91;;;5.84;100.00
68193;BME280;55012;47.562;18.414;2023-02-15T12:28:30;100839.47;;;5.88;100.00
68193;BME280;55012;47.562;18.414;2023-02-15T12:30:58;100814.47;;;5.87;100.00
68193;BME280;55012;47.562;18.414;2023-02-15T12:36:22;100786.56;;;5.99;100.00
68193;BME280;55012;47.562;18.414;2023-02-15T12:41:46;100760.63;;;6.18;100.00
68193;BME280;55012;47.562;18.414;2023-02-15T12:44:24;100746.88;;;6.30;100.00
68193;BME280;55012;47.562;18.414;2023-02-15T12:49:37;100673.63;;;6.48;100.00
68193;BME280;55012;47.562;18.414;2023-02-15T12:52:24;100646.75;;;6.48;100.00
68193;BME280;55012;47.562;18.414;2023-02-15T12:54:50;100621.97;;;6.51;100.00
68193;BME280;55012;47.562;18.414;2023-02-15T12:57:30;100486.53;;;6.47;100.00
68193;BME280;55012;47.562;18.414;2023-02-15T12:59:59;100454.84;;;6.44;100.00
68193;BME280;55012;47.562;18.414;2023-02-15T13:02:47;100492.25;;;6.40;100.00
68193;BME280;55012;47.562;18.414;2023-02-15T13:07:53;100517.41;;;6.50;100.00
68193;BME280;55012;47.562;18.414;2023-02-15T13:12:50;100506.25;;;6.61;100.00
68193;BME280;55012;47.562;18.414;2023-02-15T13:15:28;100489.78;;;6.68;100.00
68193;BME280;55012;47.562;18.414;2023-02-15T13:17:58;100466.16;;;6.65;100.00
68193;BME280;55012;47.562;18.414;2023-02-15T13:20:25;100467.16;;;6.69;100.00
68193;BME280;55012;47.562;18.414;2023-02-15T13:23:01;100467.72;;;6.71;100.00
68193;BME280;55012;47.562;18.414;2023-02-15T13:25:32;100452.00;;;6.78;100.00
68193;BME280;55012;47.562;18.414;2023-02-15T13:28:04;100461.31;;;6.86;100.00
68193;BME280;55012;47.562;18.414;2023-02-15T13:30:31;100424.19;;;6.88;100.00
68193;BME280;55012;47.562;18.414;2023-02-15T13:33:05;100419.31;;;6.90;100.00
68193;BME280;55012;47.562;18.414;2023-02-15T13:35:38;100414.22;;;6.88;100.00
68193;BME280;55012;47.562;18.414;2023-02-15T13:38:15;100413.63;;;6.91;100.00
68193;BME280;55012;47.562;18.414;2023-02-15T13:40:46;100409.53;;;6.94;100.00
68193;BME280;55012;47.562;18.414;2023-02-15T13:43:25;100396.69;;;6.91;100.00
68193;BME280;55012;47.562;18.414;2023-02-15T13:57:22;100389.56;;;7.00;100.00
68193;BME280;55012;47.562;18.414;2023-02-15T14:00:04;100389.47;;;6.86;100.00
68193;BME280;55012;47.562;18.414;2023-02-15T14:02:54;100404.31;;;6.84;100.00
68193;BME280;55012;47.562;18.414;2023-02-15T14:08:41;100414.13;;;6.93;100.00
68193;BME280;55012;47.562;18.414;2023-02-15T14:25:56;100413.69;;;6.86;100.00
68193;BME280;55012;47.562;18.414;2023-02-15T14:28:41;100419.00;;;6.91;100.00
68193;BME280;55012;47.562;18.414;2023-02-15T14:31:11;100405.84;;;6.90;100.00
68193;BME280;55012;47.562;18.414;2023-02-15T14:33:40;100396.69;;;6.91;100.00
68193;BME280;55012;47.562;18.414;2023-02-15T14:36:11;100409.03;;;6.92;100.00
68193;BME280;55012;47.562;18.414;2023-02-15T14:41:28;100395.81;;;6.95;100.00
68193;BME280;55012;47.562;18.414;2023-02-15T14:46:25;100387.34;;;7.02;100.00
68193;BME280;55012;47.562;18.414;2023-02-15T14:54:08;100390.50;;;6.90;100.00